sensor_id;sensor_type;location;lat;lon;timestamp;temperature;humidity
29413;DHT22;16389;50.126;8.450;2022-07-01T00:01:36;17.80;99.90
29413;DHT22;16389;50.126;8.450;2022-07-01T00:04:02;17.80;99.90
29413;DHT22;16389;50.126;8.450;2022-07-01T00:06:28;17.70;99.90
29413;DHT22;16389;50.126;8.450;2022-07-01T00:08:53;17.70;99.90
29413;DHT22;16389;50.126;8.450;2022-07-01T00:11:19;17.70;99.90
29413;DHT22;16389;50.126;8.450;2022-07-01T00:13:44;17.60;99.90
29413;DHT22;16389;50.126;8.450;2022-07-01T00:16:10;17.60;99.90
29413;DHT22;16389;50.126;8.450;2022-07-01T00:18:35;17.50;99.90
29413;DHT22;16389;50.126;8.450;2022-07-01T00:21:01;17.50;99.90
29413;DHT22;16389;50.126;8.450;2022-07-01T00:23:27;17.50;99.90
29413;DHT22;16389;50.126;8.450;2022-07-01T00:25:52;17.50;99.90
29413;DHT22;16389;50.126;8.450;2022-07-01T00:28:18;17.50;99.90
29413;DHT22;16389;50.126;8.450;2022-07-01T00:30:43;17.50;99.90
29413;DHT22;16389;50.126;8.450;2022-07-01T00:33:09;17.40;99.90
29413;DHT22;16389;50.126;8.450;2022-07-01T00:35:34;17.40;99.90
29413;DHT22;16389;50.126;8.450;2022-07-01T00:37:59;17.40;99.90
29413;DHT22;16389;50.126;8.450;2022-07-01T00:40:25;17.40;99.90
29413;DHT22;16389;50.126;8.450;2022-07-01T00:42:50;17.30;99.90
29413;DHT22;16389;50.126;8.450;2022-07-01T00:45:16;17.30;99.90
29413;DHT22;16389;50.126;8.450;2022-07-01T00:47:42;17.20;99.90
29413;DHT22;16389;50.126;8.450;2022-07-01T00:50:08;17.20;99.90
29413;DHT22;16389;50.126;8.450;2022-07-01T00:52:34;17.20;99.90
29413;DHT22;16389;50.126;8.450;2022-07-01T00:55:03;17.20;99.90
29413;DHT22;16389;50.126;8.450;2022-07-01T00:57:33;17.10;99.90
29413;DHT22;16389;50.126;8.450;2022-07-01T01:00:00;17.20;99.90
29413;DHT22;16389;50.126;8.450;2022-07-01T01:02:26;17.20;99.90
29413;DHT22;16389;50.126;8.450;2022-07-01T01:04:51;17.10;99.90
29413;DHT22;16389;50.126;8.450;2022-07-01T01:07:17;17.10;99.90
29413;DHT22;16389;50.126;8.450;2022-07-01T01:09:42;17.10;99.90
29413;DHT22;16389;50.126;8.450;2022-07-01T01:12:08;17.10;99.90
29413;DHT22;16389;50.126;8.450;2022-07-01T01:14:43;17.00;99.90
29413;DHT22;16389;50.126;8.450;2022-07-01T01:17:08;17.00;99.90
29413;DHT22;16389;50.126;8.450;2022-07-01T01:19:34;17.00;99.90
29413;DHT22;16389;50.126;8.450;2022-07-01T01:21:59;16.90;99.90
29413;DHT22;16389;50.126;8.450;2022-07-01T01:24:25;16.90;99.90
29413;DHT22;16389;50.126;8.450;2022-07-01T01:26:50;16.90;99.90
29413;DHT22;16389;50.126;8.450;2022-07-01T01:29:16;16.80;99.90
29413;DHT22;16389;50.126;8.450;2022-07-01T01:31:42;16.70;99.90
29413;DHT22;16389;50.126;8.450;2022-07-01T01:34:07;16.70;99.90
29413;DHT22;16389;50.126;8.450;2022-07-01T01:36:33;16.60;99.90
29413;DHT22;16389;50.126;8.450;2022-07-01T01:38:59;16.60;99.90
29413;DHT22;16389;50.126;8.450;2022-07-01T01:41:37;16.50;99.90
29413;DHT22;16389;50.126;8.450;2022-07-01T01:44:03;16.40;99.90
29413;DHT22;16389;50.126;8.450;2022-07-01T01:46:29;16.40;99.90
29413;DHT22;16389;50.126;8.450;2022-07-01T01:48:56;16.30;99.90
29413;DHT22;16389;50.126;8.450;2022-07-01T01:51:21;16.20;99.90
29413;DHT22;16389;50.126;8.450;2022-07-01T01:53:48;16.30;99.90
29413;DHT22;16389;50.126;8.450;2022-07-01T01:56:13;16.30;99.90
29413;DHT22;16389;50.126;8.450;2022-07-01T01:58:39;16.30;99.90
29413;DHT22;16389;50.126;8.450;2022-07-01T02:01:09;16.40;99.90
29413;DHT22;16389;50.126;8.450;2022-07-01T02:03:36;16.40;99.90
29413;DHT22;16389;50.126;8.450;2022-07-01T02:06:03;16.40;99.90
29413;DHT22;16389;50.126;8.450;2022-07-01T02:08:29;16.50;99.90
29413;DHT22;16389;50.126;8.450;2022-07-01T02:10:55;16.50;99.90
29413;DHT22;16389;50.126;8.450;2022-07-01T02:13:20;16.50;99.90
29413;DHT22;16389;50.126;8.450;2022-07-01T02:15:46;16.40;99.90
29413;DHT22;16389;50.126;8.450;2022-07-01T02:18:12;16.30;99.90
29413;DHT22;16389;50.126;8.450;2022-07-01T02:20:37;16.30;99.90
29413;DHT22;16389;50.126;8.450;2022-07-01T02:23:03;16.30;99.90
29413;DHT22;16389;50.126;8.450;2022-07-01T02:25:28;16.30;99.90
29413;DHT22;16389;50.126;8.450;2022-07-01T02:27:55;16.30;99.90
29413;DHT22;16389;50.126;8.450;2022-07-01T02:30:20;16.30;99.90
29413;DHT22;16389;50.126;8.450;2022-07-01T02:32:46;16.30;99.90
29413;DHT22;16389;50.126;8.450;2022-07-01T02:35:11;16.30;99.90
29413;DHT22;16389;50.126;8.450;2022-07-01T02:37:39;16.30;99.90
29413;DHT22;16389;50.126;8.450;2022-07-01T02:40:05;16.20;99.90
29413;DHT22;16389;50.126;8.450;2022-07-01T02:42:31;16.20;99.90
29413;DHT22;16389;50.126;8.450;2022-07-01T02:45:01;16.10;99.90
29413;DHT22;16389;50.126;8.450;2022-07-01T02:47:35;16.10;99.90
29413;DHT22;16389;50.126;8.450;2022-07-01T02:50:03;16.10;99.90
29413;DHT22;16389;50.126;8.450;2022-07-01T02:52:28;16.10;99.90
29413;DHT22;16389;50.126;8.450;2022-07-01T02:54:54;16.10;99.90
29413;DHT22;16389;50.126;8.450;2022-07-01T02:57:20;16.00;99.90
29413;DHT22;16389;50.126;8.450;2022-07-01T02:59:46;16.10;99.90
29413;DHT22;16389;50.126;8.450;2022-07-01T03:02:12;16.10;99.90
29413;DHT22;16389;50.126;8.450;2022-07-01T03:04:38;16.10;99.90
29413;DHT22;16389;50.126;8.450;2022-07-01T03:07:03;16.10;99.90
29413;DHT22;16389;50.126;8.450;2022-07-01T03:09:29;16.00;99.90
29413;DHT22;16389;50.126;8.450;2022-07-01T03:11:54;16.00;99.90
29413;DHT22;16389;50.126;8.450;2022-07-01T03:14:20;16.00;99.90
29413;DHT22;16389;50.126;8.450;2022-07-01T03:16:47;16.00;99.90
29413;DHT22;16389;50.126;8.450;2022-07-01T03:19:13;16.00;99.90
29413;DHT22;16389;50.126;8.450;2022-07-01T03:21:39;16.00;99.90
29413;DHT22;16389;50.126;8.450;2022-07-01T03:24:06;16.00;99.90
29413;DHT22;16389;50.126;8.450;2022-07-01T03:26:31;15.90;99.90
29413;DHT22;16389;50.126;8.450;2022-07-01T03:28:57;16.00;99.90
29413;DHT22;16389;50.126;8.450;2022-07-01T03:31:22;15.90;99.90
29413;DHT22;16389;50.126;8.450;2022-07-01T03:33:48;16.00;99.90
29413;DHT22;16389;50.126;8.450;2022-07-01T03:36:14;15.90;99.90
29413;DHT22;16389;50.126;8.450;2022-07-01T03:38:39;16.00;99.90
29413;DHT22;16389;50.126;8.450;2022-07-01T03:41:05;16.00;99.90
29413;DHT22;16389;50.126;8.450;2022-07-01T03:43:31;15.90;99.90
29413;DHT22;16389;50.126;8.450;2022-07-01T03:45:56;15.90;99.90
29413;DHT22;16389;50.126;8.450;2022-07-01T03:48:22;15.90;99.90
29413;DHT22;16389;50.126;8.450;2022-07-01T03:50:47;15.80;99.90
29413;DHT22;16389;50.126;8.450;2022-07-01T03:53:13;15.80;99.90
29413;DHT22;16389;50.126;8.450;2022-07-01T03:55:57;15.80;99.90
29413;DHT22;16389;50.126;8.450;2022-07-01T03:58:23;15.80;99.90
29413;DHT22;16389;50.126;8.450;2022-07-01T04:00:49;15.70;99.90
29413;DHT22;16389;50.126;8.450;2022-07-01T04:03:14;15.70;99.90
29413;DHT22;16389;50.126;8.450;2022-07-01T04:05:40;15.70;99.90
29413;DHT22;16389;50.126;8.450;2022-07-01T04:08:07;15.60;99.90
29413;DHT22;16389;50.126;8.450;2022-07-01T04:10:34;15.60;99.90
29413;DHT22;16389;50.126;8.450;2022-07-01T04:13:01;15.60;99.90
29413;DHT22;16389;50.126;8.450;2022-07-01T04:15:26;15.70;99.90
29413;DHT22;16389;50.126;8.450;2022-07-01T04:17:52;15.60;99.90
29413;DHT22;16389;50.126;8.450;2022-07-01T04:20:18;15.60;99.90
29413;DHT22;16389;50.126;8.450;2022-07-01T04:22:43;15.70;99.90
29413;DHT22;16389;50.126;8.450;2022-07-01T04:25:09;15.60;99.90
29413;DHT22;16389;50.126;8.450;2022-07-01T04:27:35;15.60;99.90
29413;DHT22;16389;50.126;8.450;2022-07-01T04:30:00;15.70;99.90
29413;DHT22;16389;50.126;8.450;2022-07-01T04:32:28;15.70;99.90
29413;DHT22;16389;50.126;8.450;2022-07-01T04:34:54;15.70;99.90
29413;DHT22;16389;50.126;8.450;2022-07-01T04:37:19;15.70;99.90
29413;DHT22;16389;50.126;8.450;2022-07-01T04:39:45;15.80;99.90
29413;DHT22;16389;50.126;8.450;2022-07-01T04:42:11;15.70;99.90
29413;DHT22;16389;50.126;8.450;2022-07-01T04:44:37;15.80;99.90
29413;DHT22;16389;50.126;8.450;2022-07-01T04:47:04;15.80;99.90
29413;DHT22;16389;50.126;8.450;2022-07-01T04:49:30;15.70;99.90
29413;DHT22;16389;50.126;8.450;2022-07-01T04:51:57;15.70;99.90
29413;DHT22;16389;50.126;8.450;2022-07-01T04:54:23;15.70;99.90
29413;DHT22;16389;50.126;8.450;2022-07-01T04:56:49;15.80;99.90
29413;DHT22;16389;50.126;8.450;2022-07-01T04:59:16;15.70;99.90
29413;DHT22;16389;50.126;8.450;2022-07-01T05:01:42;15.70;99.90
29413;DHT22;16389;50.126;8.450;2022-07-01T05:04:09;15.80;99.90
29413;DHT22;16389;50.126;8.450;2022-07-01T05:06:35;15.80;99.90
29413;DHT22;16389;50.126;8.450;2022-07-01T05:09:01;15.80;99.90
29413;DHT22;16389;50.126;8.450;2022-07-01T05:11:26;15.70;99.90
29413;DHT22;16389;50.126;8.450;2022-07-01T05:13:52;15.80;99.90
29413;DHT22;16389;50.126;8.450;2022-07-01T05:16:18;15.70;99.90
29413;DHT22;16389;50.126;8.450;2022-07-01T05:18:44;15.80;99.90
29413;DHT22;16389;50.126;8.450;2022-07-01T05:21:28;15.80;99.90
29413;DHT22;16389;50.126;8.450;2022-07-01T05:24:13;15.80;99.90
29413;DHT22;16389;50.126;8.450;2022-07-01T05:26:38;15.80;99.90
29413;DHT22;16389;50.126;8.450;2022-07-01T05:29:04;15.80;99.90
29413;DHT22;16389;50.126;8.450;2022-07-01T05:31:30;15.90;99.90
29413;DHT22;16389;50.126;8.450;2022-07-01T05:33:55;15.90;99.90
29413;DHT22;16389;50.126;8.450;2022-07-01T05:36:21;16.00;99.90
29413;DHT22;16389;50.126;8.450;2022-07-01T05:38:47;16.10;99.90
29413;DHT22;16389;50.126;8.450;2022-07-01T05:41:12;16.20;99.90
29413;DHT22;16389;50.126;8.450;2022-07-01T05:43:38;16.30;99.90
29413;DHT22;16389;50.126;8.450;2022-07-01T05:46:04;16.40;99.90
29413;DHT22;16389;50.126;8.450;2022-07-01T05:48:30;16.50;99.90
29413;DHT22;16389;50.126;8.450;2022-07-01T05:50:56;16.50;99.90
29413;DHT22;16389;50.126;8.450;2022-07-01T05:53:21;16.60;99.90
29413;DHT22;16389;50.126;8.450;2022-07-01T05:55:47;16.70;99.90
29413;DHT22;16389;50.126;8.450;2022-07-01T05:58:14;16.70;99.90
29413;DHT22;16389;50.126;8.450;2022-07-01T06:00:41;16.80;99.90
29413;DHT22;16389;50.126;8.450;2022-07-01T06:03:11;16.80;99.90
29413;DHT22;16389;50.126;8.450;2022-07-01T06:05:38;16.80;99.90
29413;DHT22;16389;50.126;8.450;2022-07-01T06:08:04;16.80;99.90
29413;DHT22;16389;50.126;8.450;2022-07-01T06:10:29;16.80;99.90
29413;DHT22;16389;50.126;8.450;2022-07-01T06:12:55;16.70;99.90
29413;DHT22;16389;50.126;8.450;2022-07-01T06:15:20;16.60;99.90
29413;DHT22;16389;50.126;8.450;2022-07-01T06:17:46;16.60;99.90
29413;DHT22;16389;50.126;8.450;2022-07-01T06:20:12;16.70;99.90
29413;DHT22;16389;50.126;8.450;2022-07-01T06:22:37;16.70;99.90
29413;DHT22;16389;50.126;8.450;2022-07-01T06:25:03;16.60;99.90
29413;DHT22;16389;50.126;8.450;2022-07-01T06:27:29;16.70;99.90
29413;DHT22;16389;50.126;8.450;2022-07-01T06:29:55;16.80;99.90
29413;DHT22;16389;50.126;8.450;2022-07-01T06:32:20;16.80;99.90
29413;DHT22;16389;50.126;8.450;2022-07-01T06:34:47;16.90;99.90
29413;DHT22;16389;50.126;8.450;2022-07-01T06:37:13;16.90;99.90
29413;DHT22;16389;50.126;8.450;2022-07-01T06:39:39;16.90;99.90
29413;DHT22;16389;50.126;8.450;2022-07-01T06:42:05;17.00;99.90
29413;DHT22;16389;50.126;8.450;2022-07-01T06:44:31;17.00;99.90
29413;DHT22;16389;50.126;8.450;2022-07-01T06:46:56;17.00;99.90
29413;DHT22;16389;50.126;8.450;2022-07-01T06:49:22;17.00;99.90
29413;DHT22;16389;50.126;8.450;2022-07-01T06:51:47;17.10;99.90
29413;DHT22;16389;50.126;8.450;2022-07-01T06:54:13;17.20;99.90
29413;DHT22;16389;50.126;8.450;2022-07-01T06:56:39;17.30;99.90
29413;DHT22;16389;50.126;8.450;2022-07-01T06:59:04;17.30;99.90
29413;DHT22;16389;50.126;8.450;2022-07-01T07:01:30;17.40;99.90
29413;DHT22;16389;50.126;8.450;2022-07-01T07:03:56;17.40;99.90
29413;DHT22;16389;50.126;8.450;2022-07-01T07:06:22;17.30;99.90
29413;DHT22;16389;50.126;8.450;2022-07-01T07:08:47;17.20;99.90
29413;DHT22;16389;50.126;8.450;2022-07-01T07:11:13;17.20;99.90
29413;DHT22;16389;50.126;8.450;2022-07-01T07:13:40;17.00;99.90
29413;DHT22;16389;50.126;8.450;2022-07-01T07:16:06;17.00;99.90
29413;DHT22;16389;50.126;8.450;2022-07-01T07:18:32;17.20;99.90
29413;DHT22;16389;50.126;8.450;2022-07-01T07:20:57;17.20;99.90
29413;DHT22;16389;50.126;8.450;2022-07-01T07:23:23;17.30;99.90
29413;DHT22;16389;50.126;8.450;2022-07-01T07:25:49;17.20;99.90
29413;DHT22;16389;50.126;8.450;2022-07-01T07:28:14;17.10;99.90
29413;DHT22;16389;50.126;8.450;2022-07-01T07:30:40;17.10;99.90
29413;DHT22;16389;50.126;8.450;2022-07-01T07:33:05;17.00;99.90
29413;DHT22;16389;50.126;8.450;2022-07-01T07:35:31;16.90;99.90
29413;DHT22;16389;50.126;8.450;2022-07-01T07:37:57;16.80;99.90
29413;DHT22;16389;50.126;8.450;2022-07-01T07:40:23;16.70;99.90
29413;DHT22;16389;50.126;8.450;2022-07-01T07:42:49;16.60;99.90
29413;DHT22;16389;50.126;8.450;2022-07-01T07:45:16;16.60;99.90
29413;DHT22;16389;50.126;8.450;2022-07-01T07:47:48;16.60;99.90
29413;DHT22;16389;50.126;8.450;2022-07-01T07:50:15;16.60;99.90
29413;DHT22;16389;50.126;8.450;2022-07-01T07:52:42;16.70;99.90
29413;DHT22;16389;50.126;8.450;2022-07-01T07:55:08;16.80;99.90
29413;DHT22;16389;50.126;8.450;2022-07-01T07:57:39;16.90;99.90
29413;DHT22;16389;50.126;8.450;2022-07-01T08:00:05;17.00;99.90
29413;DHT22;16389;50.126;8.450;2022-07-01T08:02:31;17.00;99.90
29413;DHT22;16389;50.126;8.450;2022-07-01T08:04:56;17.00;99.90
29413;DHT22;16389;50.126;8.450;2022-07-01T08:07:22;17.00;99.90
29413;DHT22;16389;50.126;8.450;2022-07-01T08:09:47;16.90;99.90
29413;DHT22;16389;50.126;8.450;2022-07-01T08:12:14;16.90;99.90
29413;DHT22;16389;50.126;8.450;2022-07-01T08:14:40;16.90;99.90
29413;DHT22;16389;50.126;8.450;2022-07-01T08:17:06;16.90;99.90
29413;DHT22;16389;50.126;8.450;2022-07-01T08:19:31;16.90;99.90
29413;DHT22;16389;50.126;8.450;2022-07-01T08:21:57;16.90;99.90
29413;DHT22;16389;50.126;8.450;2022-07-01T08:24:23;16.90;99.90
29413;DHT22;16389;50.126;8.450;2022-07-01T08:26:48;16.80;99.90
29413;DHT22;16389;50.126;8.450;2022-07-01T08:29:14;16.90;99.90
29413;DHT22;16389;50.126;8.450;2022-07-01T08:31:40;16.80;99.90
29413;DHT22;16389;50.126;8.450;2022-07-01T08:34:05;16.90;99.90
29413;DHT22;16389;50.126;8.450;2022-07-01T08:36:32;16.90;99.90
29413;DHT22;16389;50.126;8.450;2022-07-01T08:38:58;17.00;99.90
29413;DHT22;16389;50.126;8.450;2022-07-01T08:41:23;17.10;99.90
29413;DHT22;16389;50.126;8.450;2022-07-01T08:43:49;17.20;99.90
29413;DHT22;16389;50.126;8.450;2022-07-01T08:46:15;17.30;99.90
29413;DHT22;16389;50.126;8.450;2022-07-01T08:48:44;17.30;99.90
29413;DHT22;16389;50.126;8.450;2022-07-01T08:51:10;17.40;99.90
29413;DHT22;16389;50.126;8.450;2022-07-01T08:53:36;17.50;99.90
29413;DHT22;16389;50.126;8.450;2022-07-01T08:56:02;17.50;99.90
29413;DHT22;16389;50.126;8.450;2022-07-01T08:58:51;17.60;99.90
29413;DHT22;16389;50.126;8.450;2022-07-01T09:01:20;17.70;99.90
29413;DHT22;16389;50.126;8.450;2022-07-01T09:03:50;17.70;99.90
29413;DHT22;16389;50.126;8.450;2022-07-01T09:06:22;17.90;99.90
29413;DHT22;16389;50.126;8.450;2022-07-01T09:08:49;17.90;99.90
29413;DHT22;16389;50.126;8.450;2022-07-01T09:11:32;17.80;99.90
29413;DHT22;16389;50.126;8.450;2022-07-01T09:14:10;17.80;99.90
29413;DHT22;16389;50.126;8.450;2022-07-01T09:19:09;17.90;99.90
29413;DHT22;16389;50.126;8.450;2022-07-01T09:21:35;17.80;99.90
29413;DHT22;16389;50.126;8.450;2022-07-01T09:24:22;17.80;99.90
29413;DHT22;16389;50.126;8.450;2022-07-01T09:27:05;17.60;99.90
29413;DHT22;16389;50.126;8.450;2022-07-01T09:29:35;17.60;99.90
29413;DHT22;16389;50.126;8.450;2022-07-01T09:32:03;17.60;99.90
29413;DHT22;16389;50.126;8.450;2022-07-01T09:34:33;17.40;99.90
29413;DHT22;16389;50.126;8.450;2022-07-01T09:36:59;17.30;99.90
29413;DHT22;16389;50.126;8.450;2022-07-01T09:39:25;17.20;99.90
29413;DHT22;16389;50.126;8.450;2022-07-01T09:41:54;17.10;99.90
29413;DHT22;16389;50.126;8.450;2022-07-01T09:44:20;17.20;99.90
29413;DHT22;16389;50.126;8.450;2022-07-01T09:46:53;17.30;99.90
29413;DHT22;16389;50.126;8.450;2022-07-01T09:49:19;17.40;99.90
29413;DHT22;16389;50.126;8.450;2022-07-01T09:51:45;17.60;99.90
29413;DHT22;16389;50.126;8.450;2022-07-01T09:54:12;17.80;99.90
29413;DHT22;16389;50.126;8.450;2022-07-01T09:56:38;17.90;99.90
29413;DHT22;16389;50.126;8.450;2022-07-01T09:59:04;18.20;99.90
29413;DHT22;16389;50.126;8.450;2022-07-01T10:01:31;18.40;99.90
29413;DHT22;16389;50.126;8.450;2022-07-01T10:03:58;18.70;99.90
29413;DHT22;16389;50.126;8.450;2022-07-01T10:12:39;19.70;99.90
29413;DHT22;16389;50.126;8.450;2022-07-01T10:14:45;19.90;99.90
29413;DHT22;16389;50.126;8.450;2022-07-01T10:17:29;20.40;99.90
29413;DHT22;16389;50.126;8.450;2022-07-01T10:19:57;20.80;99.90
29413;DHT22;16389;50.126;8.450;2022-07-01T10:22:30;20.90;99.90
29413;DHT22;16389;50.126;8.450;2022-07-01T10:28:40;21.30;99.90
29413;DHT22;16389;50.126;8.450;2022-07-01T10:31:10;21.20;99.90
29413;DHT22;16389;50.126;8.450;2022-07-01T10:44:05;21.30;99.90
29413;DHT22;16389;50.126;8.450;2022-07-01T10:46:47;21.50;99.90
29413;DHT22;16389;50.126;8.450;2022-07-01T10:49:19;21.50;99.90
29413;DHT22;16389;50.126;8.450;2022-07-01T10:51:52;21.30;99.90
29413;DHT22;16389;50.126;8.450;2022-07-01T10:59:52;20.40;99.90
29413;DHT22;16389;50.126;8.450;2022-07-01T11:04:56;20.00;99.90
29413;DHT22;16389;50.126;8.450;2022-07-01T11:07:27;19.90;99.90
29413;DHT22;16389;50.126;8.450;2022-07-01T11:09:54;19.90;99.90
29413;DHT22;16389;50.126;8.450;2022-07-01T11:12:21;19.90;99.90
29413;DHT22;16389;50.126;8.450;2022-07-01T11:14:49;19.90;99.90
29413;DHT22;16389;50.126;8.450;2022-07-01T11:17:15;19.70;99.90
29413;DHT22;16389;50.126;8.450;2022-07-01T11:19:52;19.70;99.90
29413;DHT22;16389;50.126;8.450;2022-07-01T11:22:22;19.80;99.90
29413;DHT22;16389;50.126;8.450;2022-07-01T11:24:59;20.10;99.90
29413;DHT22;16389;50.126;8.450;2022-07-01T11:27:25;20.50;99.90
29413;DHT22;16389;50.126;8.450;2022-07-01T11:29:52;21.30;99.90
29413;DHT22;16389;50.126;8.450;2022-07-01T11:32:29;22.00;99.90
29413;DHT22;16389;50.126;8.450;2022-07-01T11:34:56;22.30;99.90
29413;DHT22;16389;50.126;8.450;2022-07-01T11:37:22;22.60;99.90
29413;DHT22;16389;50.126;8.450;2022-07-01T11:40:12;22.20;99.90
29413;DHT22;16389;50.126;8.450;2022-07-01T11:42:38;21.90;99.90
29413;DHT22;16389;50.126;8.450;2022-07-01T11:45:05;21.70;99.90
29413;DHT22;16389;50.126;8.450;2022-07-01T11:47:31;21.30;99.90
29413;DHT22;16389;50.126;8.450;2022-07-01T11:49:58;20.70;99.90
29413;DHT22;16389;50.126;8.450;2022-07-01T11:52:24;20.40;99.90
29413;DHT22;16389;50.126;8.450;2022-07-01T11:54:51;20.30;99.90
29413;DHT22;16389;50.126;8.450;2022-07-01T11:57:20;20.20;99.90
29413;DHT22;16389;50.126;8.450;2022-07-01T11:59:48;21.40;99.90
29413;DHT22;16389;50.126;8.450;2022-07-01T12:02:15;23.10;99.90
29413;DHT22;16389;50.126;8.450;2022-07-01T12:04:42;24.70;99.90
29413;DHT22;16389;50.126;8.450;2022-07-01T12:07:09;26.40;98.70
29413;DHT22;16389;50.126;8.450;2022-07-01T12:09:36;27.70;93.50
29413;DHT22;16389;50.126;8.450;2022-07-01T12:12:03;28.40;92.10
29413;DHT22;16389;50.126;8.450;2022-07-01T12:14:32;28.30;90.20
29413;DHT22;16389;50.126;8.450;2022-07-01T12:17:00;27.60;90.90
29413;DHT22;16389;50.126;8.450;2022-07-01T12:22:01;27.80;89.90
29413;DHT22;16389;50.126;8.450;2022-07-01T12:24:30;27.60;87.10
29413;DHT22;16389;50.126;8.450;2022-07-01T12:29:25;26.40;90.10
29413;DHT22;16389;50.126;8.450;2022-07-01T12:31:59;25.40;91.60
29413;DHT22;16389;50.126;8.450;2022-07-01T12:34:37;24.70;91.60
29413;DHT22;16389;50.126;8.450;2022-07-01T12:37:03;24.10;92.80
29413;DHT22;16389;50.126;8.450;2022-07-01T12:39:44;23.70;94.30
29413;DHT22;16389;50.126;8.450;2022-07-01T12:45:00;22.60;95.60
29413;DHT22;16389;50.126;8.450;2022-07-01T12:47:34;22.50;96.70
29413;DHT22;16389;50.126;8.450;2022-07-01T12:50:14;22.10;96.00
29413;DHT22;16389;50.126;8.450;2022-07-01T12:52:42;21.90;96.20
29413;DHT22;16389;50.126;8.450;2022-07-01T12:55:19;21.80;96.70
29413;DHT22;16389;50.126;8.450;2022-07-01T12:57:50;22.10;98.20
29413;DHT22;16389;50.126;8.450;2022-07-01T13:00:17;22.30;97.50
29413;DHT22;16389;50.126;8.450;2022-07-01T13:02:43;22.50;97.40
29413;DHT22;16389;50.126;8.450;2022-07-01T13:05:10;22.70;96.70
29413;DHT22;16389;50.126;8.450;2022-07-01T13:07:36;23.10;97.00
29413;DHT22;16389;50.126;8.450;2022-07-01T13:10:02;23.60;96.10
29413;DHT22;16389;50.126;8.450;2022-07-01T13:12:28;24.10;96.30
29413;DHT22;16389;50.126;8.450;2022-07-01T13:14:54;24.80;95.50
29413;DHT22;16389;50.126;8.450;2022-07-01T13:17:22;25.60;94.00
29413;DHT22;16389;50.126;8.450;2022-07-01T13:19:47;26.50;93.20
29413;DHT22;16389;50.126;8.450;2022-07-01T13:22:14;27.40;91.70
29413;DHT22;16389;50.126;8.450;2022-07-01T13:24:40;28.20;90.00
29413;DHT22;16389;50.126;8.450;2022-07-01T13:27:06;28.00;87.00
29413;DHT22;16389;50.126;8.450;2022-07-01T13:29:31;28.20;88.30
29413;DHT22;16389;50.126;8.450;2022-07-01T13:31:57;28.30;86.30
29413;DHT22;16389;50.126;8.450;2022-07-01T13:34:23;27.70;83.90
29413;DHT22;16389;50.126;8.450;2022-07-01T13:36:48;27.00;84.20
29413;DHT22;16389;50.126;8.450;2022-07-01T13:39:14;26.80;85.40
29413;DHT22;16389;50.126;8.450;2022-07-01T13:41:40;26.40;84.20
29413;DHT22;16389;50.126;8.450;2022-07-01T13:44:05;26.10;82.60
29413;DHT22;16389;50.126;8.450;2022-07-01T13:46:31;25.80;84.50
29413;DHT22;16389;50.126;8.450;2022-07-01T13:48:57;25.70;86.10
29413;DHT22;16389;50.126;8.450;2022-07-01T13:51:23;25.60;84.30
29413;DHT22;16389;50.126;8.450;2022-07-01T13:53:49;25.50;84.30
29413;DHT22;16389;50.126;8.450;2022-07-01T13:56:14;25.40;86.60
29413;DHT22;16389;50.126;8.450;2022-07-01T13:58:40;25.20;89.10
29413;DHT22;16389;50.126;8.450;2022-07-01T14:01:05;25.30;88.20
29413;DHT22;16389;50.126;8.450;2022-07-01T14:03:31;25.10;88.30
29413;DHT22;16389;50.126;8.450;2022-07-01T14:05:57;25.80;89.20
29413;DHT22;16389;50.126;8.450;2022-07-01T14:08:22;27.10;88.60
29413;DHT22;16389;50.126;8.450;2022-07-01T14:10:48;28.70;85.50
29413;DHT22;16389;50.126;8.450;2022-07-01T14:13:14;30.30;82.80
29413;DHT22;16389;50.126;8.450;2022-07-01T14:15:39;31.80;80.80
29413;DHT22;16389;50.126;8.450;2022-07-01T14:18:05;33.00;76.00
29413;DHT22;16389;50.126;8.450;2022-07-01T14:20:30;33.90;74.90
29413;DHT22;16389;50.126;8.450;2022-07-01T14:22:56;34.70;69.00
29413;DHT22;16389;50.126;8.450;2022-07-01T14:25:22;34.80;66.80
29413;DHT22;16389;50.126;8.450;2022-07-01T14:27:48;34.10;66.30
29413;DHT22;16389;50.126;8.450;2022-07-01T14:30:15;32.80;67.30
29413;DHT22;16389;50.126;8.450;2022-07-01T14:32:42;32.80;69.40
29413;DHT22;16389;50.126;8.450;2022-07-01T14:35:08;33.40;68.20
29413;DHT22;16389;50.126;8.450;2022-07-01T14:37:34;34.30;66.50
29413;DHT22;16389;50.126;8.450;2022-07-01T14:40:03;34.80;64.10
29413;DHT22;16389;50.126;8.450;2022-07-01T14:42:29;34.20;62.10
29413;DHT22;16389;50.126;8.450;2022-07-01T14:44:55;32.80;64.30
29413;DHT22;16389;50.126;8.450;2022-07-01T14:47:21;31.30;67.70
29413;DHT22;16389;50.126;8.450;2022-07-01T14:49:48;29.80;67.70
29413;DHT22;16389;50.126;8.450;2022-07-01T14:52:15;28.50;72.90
29413;DHT22;16389;50.126;8.450;2022-07-01T14:54:43;27.70;75.80
29413;DHT22;16389;50.126;8.450;2022-07-01T14:57:09;27.00;76.80
29413;DHT22;16389;50.126;8.450;2022-07-01T14:59:35;27.00;79.30
29413;DHT22;16389;50.126;8.450;2022-07-01T15:02:02;27.90;77.20
29413;DHT22;16389;50.126;8.450;2022-07-01T15:04:30;27.90;74.90
29413;DHT22;16389;50.126;8.450;2022-07-01T15:06:56;27.90;74.40
29413;DHT22;16389;50.126;8.450;2022-07-01T15:09:21;27.80;76.00
29413;DHT22;16389;50.126;8.450;2022-07-01T15:11:51;27.40;74.50
29413;DHT22;16389;50.126;8.450;2022-07-01T15:14:17;27.00;73.00
29413;DHT22;16389;50.126;8.450;2022-07-01T15:16:43;26.70;76.60
29413;DHT22;16389;50.126;8.450;2022-07-01T15:19:10;26.50;74.40
29413;DHT22;16389;50.126;8.450;2022-07-01T15:21:35;26.50;78.00
29413;DHT22;16389;50.126;8.450;2022-07-01T15:24:01;26.80;78.80
29413;DHT22;16389;50.126;8.450;2022-07-01T15:26:27;26.50;76.40
29413;DHT22;16389;50.126;8.450;2022-07-01T15:28:52;26.80;78.30
29413;DHT22;16389;50.126;8.450;2022-07-01T15:31:18;27.10;77.80
29413;DHT22;16389;50.126;8.450;2022-07-01T15:33:44;27.50;75.70
29413;DHT22;16389;50.126;8.450;2022-07-01T15:36:09;28.00;74.20
29413;DHT22;16389;50.126;8.450;2022-07-01T15:38:39;28.50;73.10
29413;DHT22;16389;50.126;8.450;2022-07-01T15:41:05;29.00;72.40
29413;DHT22;16389;50.126;8.450;2022-07-01T15:43:32;28.80;73.10
29413;DHT22;16389;50.126;8.450;2022-07-01T15:45:58;29.10;73.30
29413;DHT22;16389;50.126;8.450;2022-07-01T15:48:24;29.70;73.40
29413;DHT22;16389;50.126;8.450;2022-07-01T15:50:49;30.40;71.00
29413;DHT22;16389;50.126;8.450;2022-07-01T15:53:16;30.70;68.70
29413;DHT22;16389;50.126;8.450;2022-07-01T15:55:42;30.20;69.50
29413;DHT22;16389;50.126;8.450;2022-07-01T15:58:10;30.20;69.30
29413;DHT22;16389;50.126;8.450;2022-07-01T16:00:36;29.50;68.50
29413;DHT22;16389;50.126;8.450;2022-07-01T16:03:04;29.00;70.70
29413;DHT22;16389;50.126;8.450;2022-07-01T16:05:29;28.10;72.50
29413;DHT22;16389;50.126;8.450;2022-07-01T16:07:58;27.20;74.10